TimeCDT,TemperatureF,Dew PointF,Humidity,Sea Level PressureIn,VisibilityMPH,Wind Direction,Wind SpeedMPH,Gust SpeedMPH,PrecipitationIn,Events,Conditions,WindDirDegrees,DateUTC
12:53 AM,66.0,24.1,20,29.69,10.0,SSW,17.3,-,N/A,,Clear,200,2013-03-16 05:53:00
1:53 AM,66.9,26.1,21,29.69,10.0,SW,19.6,-,N/A,,Clear,220,2013-03-16 06:53:00
2:53 AM,61.0,26.1,26,29.68,10.0,SW,11.5,-,N/A,,Clear,220,2013-03-16 07:53:00
3:53 AM,61.0,32.0,34,29.66,10.0,SW,11.5,-,N/A,,Clear,220,2013-03-16 08:53:00
4:53 AM,55.9,35.1,45,29.65,10.0,WSW,10.4,-,N/A,,Clear,250,2013-03-16 09:53:00
5:53 AM,59.0,37.0,44,29.64,10.0,SW,13.8,-,N/A,,Clear,230,2013-03-16 10:53:00
6:53 AM,53.1,37.0,55,29.65,10.0,WSW,9.2,-,N/A,,Clear,240,2013-03-16 11:53:00
7:53 AM,52.0,36.0,54,29.65,10.0,WSW,8.1,-,N/A,,Clear,250,2013-03-16 12:53:00
8:53 AM,55.9,35.1,45,29.66,10.0,WSW,9.2,-,N/A,,Clear,250,2013-03-16 13:53:00
9:53 AM,63.0,34.0,34,29.69,10.0,NNW,13.8,-,N/A,,Clear,330,2013-03-16 14:53:00
10:53 AM,66.9,28.0,23,29.71,10.0,North,18.4,-,N/A,,Clear,360,2013-03-16 15:53:00
11:53 AM,66.0,37.0,34,29.74,10.0,North,19.6,25.3,N/A,,Clear,350,2013-03-16 16:53:00
12:53 PM,68.0,41.0,37,29.74,10.0,North,17.3,-,N/A,,Clear,10,2013-03-16 17:53:00
1:53 PM,70.0,42.1,36,29.73,10.0,NNE,15.0,24.2,N/A,,Clear,20,2013-03-16 18:53:00
2:53 PM,69.1,39.9,35,29.72,10.0,NNE,18.4,24.2,N/A,,Clear,20,2013-03-16 19:53:00
3:53 PM,70.0,41.0,35,29.71,10.0,North,15.0,23.0,N/A,,Clear,10,2013-03-16 20:53:00
4:53 PM,70.0,41.0,35,29.71,10.0,NNE,13.8,19.6,N/A,,Clear,20,2013-03-16 21:53:00
5:53 PM,70.0,39.9,33,29.71,10.0,NNE,13.8,-,N/A,,Clear,20,2013-03-16 22:53:00
6:53 PM,66.9,39.9,37,29.73,10.0,North,15.0,-,N/A,,Clear,10,2013-03-16 23:53:00
7:53 PM,63.0,39.9,43,29.75,10.0,North,11.5,-,N/A,,Clear,10,2013-03-17 00:53:00
8:53 PM,59.0,41.0,51,29.75,10.0,NNE,12.7,-,N/A,,Clear,30,2013-03-17 01:53:00
9:53 PM,55.9,41.0,57,29.77,10.0,NE,15.0,21.9,N/A,,Clear,40,2013-03-17 02:53:00
10:53 PM,54.0,39.9,59,29.78,10.0,NNE,19.6,25.3,N/A,,Clear,30,2013-03-17 03:53:00
11:53 PM,51.1,37.0,59,29.81,10.0,NNE,17.3,24.2,N/A,,Clear,30,2013-03-17 04:53:00